createdAt,value
2023-01-21T00:00:16.491Z,0.70
2023-01-21T00:02:43.892Z,0.66
2023-01-21T00:05:11.146Z,0.67
2023-01-21T00:07:38.403Z,0.85
2023-01-21T00:10:06.045Z,0.83
2023-01-21T00:12:33.333Z,0.89
2023-01-21T00:15:00.587Z,0.69
2023-01-21T00:17:35.112Z,0.69
2023-01-21T00:20:02.642Z,0.48
2023-01-21T00:22:29.927Z,0.54
2023-01-21T00:24:57.219Z,0.44
2023-01-21T00:27:24.518Z,0.56
2023-01-21T00:29:51.869Z,0.32
2023-01-21T00:32:19.613Z,0.30
2023-01-21T00:34:48.209Z,0.37
2023-01-21T00:37:15.501Z,0.36
2023-01-21T00:39:43.024Z,0.45
2023-01-21T00:42:11.117Z,0.34
2023-01-21T00:44:38.391Z,0.51
2023-01-21T00:47:05.860Z,0.39
2023-01-21T00:49:33.264Z,0.32
2023-01-21T00:52:02.021Z,0.38
2023-01-21T00:54:31.201Z,0.46
2023-01-21T00:56:58.508Z,0.19
2023-01-21T00:59:27.158Z,0.26
2023-01-21T01:01:54.434Z,0.27
2023-01-21T01:04:22.916Z,0.33
2023-01-21T01:06:50.551Z,0.28
2023-01-21T01:09:19.185Z,0.35
2023-01-21T01:11:46.449Z,0.41
2023-01-21T01:14:13.690Z,0.42
2023-01-21T01:16:41.012Z,0.37
2023-01-21T01:19:08.287Z,0.48
2023-01-21T01:21:35.560Z,0.33
2023-01-21T01:24:03.204Z,0.33
2023-01-21T01:26:31.807Z,0.03
2023-01-21T01:28:59.077Z,0.17
2023-01-21T01:31:26.357Z,0.12
2023-01-21T01:33:53.653Z,0.09
2023-01-21T01:36:23.529Z,0.08
2023-01-21T01:38:51.335Z,0.05
2023-01-21T01:41:19.727Z,0.05
2023-01-21T01:44:04.991Z,0.11
2023-01-21T01:46:34.355Z,0.34
2023-01-21T01:49:05.048Z,0.05
2023-01-21T01:51:36.018Z,0.20
2023-01-21T01:54:04.772Z,0.24
2023-01-21T01:56:32.211Z,0.31
2023-01-21T01:58:59.623Z,0.23
2023-01-21T02:01:26.985Z,0.11
2023-01-21T02:03:59.419Z,0.09
2023-01-21T02:06:27.253Z,0.09
2023-01-21T02:08:54.931Z,0.01
2023-01-21T02:11:22.293Z,0.08
2023-01-21T02:13:51.841Z,0.09
2023-01-21T02:16:26.155Z,0.15
2023-01-21T02:18:59.354Z,0.09
2023-01-21T02:21:44.612Z,0.06
2023-01-21T02:24:29.663Z,-0.11
2023-01-21T02:27:15.511Z,0.04
2023-01-21T02:29:59.877Z,-0.11
2023-01-21T02:32:40.399Z,-0.08
2023-01-21T02:35:14.673Z,-0.03
2023-01-21T02:37:46.855Z,-0.11
2023-01-21T02:40:16.475Z,-0.25
2023-01-21T02:42:46.655Z,-0.26
2023-01-21T02:45:22.768Z,-0.28
2023-01-21T02:47:53.144Z,-0.38
2023-01-21T02:50:24.149Z,-0.25
2023-01-21T02:52:58.196Z,-0.19
2023-01-21T02:55:28.114Z,-0.26
2023-01-21T02:57:57.811Z,-0.24
2023-01-21T03:00:27.385Z,-0.34
2023-01-21T03:03:13.329Z,-0.34
2023-01-21T03:05:49.032Z,-0.27
2023-01-21T03:08:19.920Z,-0.46
2023-01-21T03:10:49.071Z,-0.36
2023-01-21T03:13:39.166Z,-0.51
2023-01-21T03:16:25.962Z,-0.47
2023-01-21T03:18:57.032Z,-0.37
2023-01-21T03:21:27.577Z,-0.51
2023-01-21T03:23:56.383Z,-0.31
2023-01-21T03:26:27.313Z,-0.57
2023-01-21T03:28:58.361Z,-0.65
2023-01-21T03:31:28.855Z,-0.52
2023-01-21T03:34:00.099Z,-0.63
2023-01-21T03:36:34.433Z,-0.50
2023-01-21T03:39:02.934Z,-0.54
2023-01-21T03:41:33.997Z,-0.47
2023-01-21T03:44:01.638Z,-0.45
2023-01-21T03:46:36.220Z,-0.49
2023-01-21T03:49:05.424Z,-0.58
2023-01-21T03:51:35.461Z,-0.49
2023-01-21T03:54:03.179Z,-0.51
2023-01-21T03:56:30.826Z,-0.50
2023-01-21T03:58:58.379Z,-0.47
2023-01-21T04:01:25.636Z,-0.36
2023-01-21T04:03:52.942Z,-0.37
2023-01-21T04:06:21.123Z,-0.45
2023-01-21T04:08:50.051Z,-0.36
2023-01-21T04:11:17.381Z,-0.30
2023-01-21T04:13:44.790Z,-0.27
2023-01-21T04:16:12.063Z,-0.37
2023-01-21T04:18:39.325Z,-0.35
2023-01-21T04:21:06.590Z,-0.24
2023-01-21T04:23:33.865Z,-0.11
2023-01-21T04:26:02.452Z,-0.25
2023-01-21T04:28:29.692Z,-0.35
2023-01-21T04:30:57.000Z,-0.13
2023-01-21T04:33:24.262Z,-0.18
2023-01-21T04:35:51.531Z,-0.21
2023-01-21T04:38:18.941Z,-0.28
2023-01-21T04:40:46.200Z,-0.26
2023-01-21T04:43:14.782Z,-0.39
2023-01-21T04:45:42.094Z,-0.34
2023-01-21T04:48:09.383Z,-0.37
2023-01-21T04:50:36.664Z,-0.50
2023-01-21T04:53:03.983Z,-0.38
2023-01-21T04:55:31.239Z,-0.35
2023-01-21T04:57:58.508Z,-0.34
2023-01-21T05:00:27.110Z,-0.32
2023-01-21T05:02:54.414Z,-0.30
2023-01-21T05:05:22.035Z,-0.27
2023-01-21T05:07:52.783Z,-0.40
2023-01-21T05:10:20.444Z,-0.16
2023-01-21T05:12:48.409Z,-0.32
2023-01-21T05:15:15.747Z,-0.34
2023-01-21T05:17:44.333Z,-0.30
2023-01-21T05:20:12.192Z,-0.31
2023-01-21T05:22:39.753Z,-0.28
2023-01-21T05:25:07.338Z,-0.16
2023-01-21T05:27:34.613Z,-0.30
2023-01-21T05:30:01.916Z,-0.38
2023-01-21T05:32:29.169Z,-0.40
2023-01-21T05:34:57.790Z,-0.34
2023-01-21T05:37:25.363Z,-0.39
2023-01-21T05:39:52.941Z,-0.42
2023-01-21T05:42:20.192Z,-0.38
2023-01-21T05:44:47.469Z,-0.35
2023-01-21T05:47:14.767Z,-0.37
2023-01-21T05:49:42.023Z,-0.44
2023-01-21T05:52:10.599Z,-0.47
2023-01-21T05:54:38.370Z,-0.48
2023-01-21T05:57:06.588Z,-0.19
2023-01-21T05:59:33.844Z,-0.22
2023-01-21T06:02:01.166Z,-0.16
2023-01-21T06:04:30.654Z,-0.56
2023-01-21T06:06:58.075Z,-0.45
2023-01-21T06:09:26.682Z,-0.39
2023-01-21T06:11:53.946Z,-0.56
2023-01-21T06:14:21.189Z,-0.41
2023-01-21T06:16:48.439Z,-0.42
2023-01-21T06:19:15.788Z,-0.43
2023-01-21T06:21:43.065Z,-0.48
2023-01-21T06:24:10.313Z,-0.35
2023-01-21T06:26:40.702Z,-0.33
2023-01-21T06:29:07.974Z,-0.46
2023-01-21T06:31:35.321Z,-0.37
2023-01-21T06:34:02.966Z,-0.34
2023-01-21T06:36:30.203Z,-0.31
2023-01-21T06:38:57.763Z,-0.19
2023-01-21T06:41:25.033Z,-0.10
2023-01-21T06:43:53.736Z,-0.25
2023-01-21T06:46:21.063Z,-0.23
2023-01-21T06:48:48.358Z,-0.17
2023-01-21T06:51:15.651Z,-0.11
2023-01-21T06:53:42.921Z,-0.25
2023-01-21T06:56:10.543Z,-0.08
2023-01-21T06:58:37.785Z,-0.07
2023-01-21T07:01:06.445Z,-0.27
2023-01-21T07:03:33.727Z,-0.23
2023-01-21T07:06:00.981Z,-0.32
2023-01-21T07:08:28.259Z,-0.20
2023-01-21T07:10:55.522Z,-0.28
2023-01-21T07:13:23.360Z,-0.26
2023-01-21T07:15:50.653Z,-0.30
2023-01-21T07:18:19.286Z,-0.19
2023-01-21T07:20:46.621Z,-0.26
2023-01-21T07:23:13.877Z,-0.26
2023-01-21T07:25:41.273Z,-0.22
2023-01-21T07:28:08.559Z,-0.35
2023-01-21T07:30:35.818Z,-0.38
2023-01-21T07:33:05.685Z,-0.31
2023-01-21T07:35:34.333Z,-0.22
2023-01-21T07:38:01.991Z,-0.18
2023-01-21T07:40:29.428Z,-0.28
2023-01-21T07:42:56.934Z,-0.15
2023-01-21T07:45:24.597Z,-0.11
2023-01-21T07:47:51.878Z,-0.07
2023-01-21T07:50:19.279Z,-0.15
2023-01-21T07:52:47.990Z,-0.16
2023-01-21T07:55:15.611Z,-0.03
2023-01-21T07:57:43.030Z,-0.04
2023-01-21T08:00:10.945Z,-0.14
2023-01-21T08:02:38.252Z,-0.15
2023-01-21T08:05:05.863Z,-0.14
2023-01-21T08:07:33.157Z,-0.05
2023-01-21T08:10:01.743Z,-0.06
2023-01-21T08:12:29.106Z,-0.06
2023-01-21T08:14:56.366Z,0.10
2023-01-21T08:17:23.606Z,0.13
2023-01-21T08:19:50.890Z,0.14
2023-01-21T08:22:18.145Z,0.13
2023-01-21T08:24:45.421Z,0.12
2023-01-21T08:27:14.002Z,0.02
2023-01-21T08:29:41.280Z,0.07
2023-01-21T08:32:08.611Z,0.12
2023-01-21T08:34:35.945Z,0.01
2023-01-21T08:37:03.203Z,0.11
2023-01-21T08:39:30.465Z,0.28
2023-01-21T08:41:57.728Z,0.14
2023-01-21T08:44:26.300Z,0.31
2023-01-21T08:46:53.581Z,0.17
2023-01-21T08:49:22.547Z,0.39
2023-01-21T08:51:50.302Z,0.29
2023-01-21T08:54:17.595Z,0.39
2023-01-21T08:56:44.897Z,0.44
2023-01-21T08:59:12.242Z,0.31
2023-01-21T09:01:41.463Z,0.36
2023-01-21T09:04:10.153Z,0.33
2023-01-21T09:06:37.588Z,0.35
2023-01-21T09:09:04.949Z,0.49
2023-01-21T09:11:32.212Z,0.31
2023-01-21T09:14:03.336Z,0.50
2023-01-21T09:16:32.349Z,0.50
2023-01-21T09:19:01.549Z,0.34
2023-01-21T09:21:29.352Z,0.46
2023-01-21T09:23:56.681Z,0.44
2023-01-21T09:26:24.716Z,0.52
2023-01-21T09:28:53.224Z,0.59
2023-01-21T09:31:21.547Z,0.70
2023-01-21T09:33:50.201Z,0.61
2023-01-21T09:36:19.950Z,0.67
2023-01-21T09:38:47.997Z,0.72
2023-01-21T09:41:19.808Z,0.69
2023-01-21T09:43:49.536Z,0.71
2023-01-21T09:46:20.022Z,0.80
2023-01-21T09:48:48.525Z,0.80
2023-01-21T09:51:20.634Z,0.90
2023-01-21T09:53:50.480Z,0.80
2023-01-21T09:56:22.561Z,0.82
2023-01-21T09:58:52.967Z,0.90
2023-01-21T10:01:23.009Z,0.69
2023-01-21T10:03:54.241Z,0.88
2023-01-21T10:06:26.334Z,0.93
2023-01-21T10:09:06.683Z,0.90
2023-01-21T10:11:39.404Z,1.02
2023-01-21T10:14:15.329Z,1.12
2023-01-21T10:16:46.097Z,1.03
2023-01-21T10:19:14.445Z,1.07
2023-01-21T10:21:46.358Z,0.96
2023-01-21T10:24:17.408Z,1.03
2023-01-21T10:26:45.514Z,1.04
2023-01-21T10:29:16.606Z,0.96
2023-01-21T10:31:45.984Z,0.87
2023-01-21T10:34:14.551Z,1.03
2023-01-21T10:36:46.293Z,1.11
2023-01-21T10:39:19.708Z,1.05
2023-01-21T10:42:10.687Z,1.06
2023-01-21T10:44:40.984Z,1.15
2023-01-21T10:47:14.241Z,1.06
2023-01-21T10:49:49.772Z,1.22
2023-01-21T10:52:20.313Z,1.15
2023-01-21T10:54:53.149Z,1.10
2023-01-21T10:57:29.821Z,1.07
2023-01-21T10:59:58.161Z,1.03
2023-01-21T11:02:28.849Z,1.13
2023-01-21T11:04:58.266Z,1.16
2023-01-21T11:07:29.587Z,1.10
2023-01-21T11:09:58.374Z,1.29
2023-01-21T11:12:27.715Z,1.33
2023-01-21T11:14:56.837Z,1.39
2023-01-21T11:17:32.814Z,1.32
2023-01-21T11:20:00.855Z,1.28
2023-01-21T11:22:30.622Z,1.37
2023-01-21T11:24:59.632Z,1.35
2023-01-21T11:27:33.397Z,1.29
2023-01-21T11:30:00.725Z,1.34
2023-01-21T11:32:29.160Z,1.39
2023-01-21T11:35:01.420Z,1.49
2023-01-21T11:37:29.779Z,1.42
2023-01-21T11:40:00.039Z,1.53
2023-01-21T11:42:28.623Z,1.57
2023-01-21T11:44:56.650Z,1.53
2023-01-21T11:47:28.931Z,1.36
2023-01-21T11:50:02.549Z,1.31
2023-01-21T11:52:29.839Z,1.38
2023-01-21T11:54:57.158Z,1.58
2023-01-21T11:57:33.303Z,1.58
2023-01-21T12:00:07.500Z,1.55
2023-01-21T12:02:37.398Z,1.46
2023-01-21T12:05:09.137Z,1.36
2023-01-21T12:07:38.452Z,1.43
2023-01-21T12:10:09.295Z,1.54
2023-01-21T12:12:46.887Z,1.35
2023-01-21T12:15:19.004Z,1.37
2023-01-21T12:17:53.052Z,1.39
2023-01-21T12:20:26.643Z,1.63
2023-01-21T12:23:00.338Z,1.63
2023-01-21T12:25:38.145Z,1.49
2023-01-21T12:28:17.226Z,1.55
2023-01-21T12:30:49.873Z,1.60
2023-01-21T12:33:22.512Z,1.61
2023-01-21T12:35:52.260Z,1.65
2023-01-21T12:38:21.707Z,1.63
2023-01-21T12:40:51.914Z,1.58
2023-01-21T12:43:23.984Z,1.65
2023-01-21T12:45:54.495Z,1.62
2023-01-21T12:48:25.725Z,1.73
2023-01-21T12:50:55.471Z,1.71
2023-01-21T12:53:27.344Z,1.59
2023-01-21T12:56:03.817Z,1.60
2023-01-21T12:58:34.119Z,1.62
2023-01-21T13:01:02.998Z,1.62
2023-01-21T13:03:37.241Z,1.66
2023-01-21T13:06:07.315Z,1.55
2023-01-21T13:08:58.727Z,1.67
2023-01-21T13:11:27.607Z,1.68
2023-01-21T13:14:03.251Z,1.70
2023-01-21T13:16:31.324Z,1.79
2023-01-21T13:18:58.716Z,1.95
2023-01-21T13:21:33.590Z,1.99
2023-01-21T13:24:04.201Z,1.93
2023-01-21T13:26:37.095Z,1.83
2023-01-21T13:29:10.114Z,1.93
2023-01-21T13:31:41.302Z,1.77
2023-01-21T13:34:15.006Z,1.98
2023-01-21T13:36:51.490Z,1.79
2023-01-21T13:39:21.710Z,1.61
2023-01-21T13:41:57.205Z,1.62
2023-01-21T13:44:48.304Z,1.64
2023-01-21T13:47:21.254Z,1.65
2023-01-21T13:49:56.543Z,1.57
2023-01-21T13:52:27.871Z,1.53
2023-01-21T13:55:01.353Z,1.40
2023-01-21T13:57:42.022Z,1.32
2023-01-21T14:00:13.812Z,1.39
2023-01-21T14:02:46.081Z,1.32
2023-01-21T14:05:15.401Z,1.43
2023-01-21T14:07:46.090Z,1.53
2023-01-21T14:10:16.789Z,1.31
2023-01-21T14:12:53.903Z,1.27
2023-01-21T14:15:30.398Z,1.23
2023-01-21T14:18:08.426Z,1.27
2023-01-21T14:20:43.576Z,1.37
2023-01-21T14:23:26.846Z,1.37
2023-01-21T14:26:02.749Z,1.24
2023-01-21T14:28:34.634Z,1.17
2023-01-21T14:31:07.708Z,1.27
2023-01-21T14:33:39.048Z,1.33
2023-01-21T14:36:09.052Z,1.25
2023-01-21T14:38:43.464Z,1.18
2023-01-21T14:41:11.600Z,1.20
2023-01-21T14:43:49.469Z,1.23
2023-01-21T14:46:28.524Z,1.23
2023-01-21T14:48:58.295Z,1.22
2023-01-21T14:51:28.124Z,1.16
2023-01-21T14:53:58.923Z,1.15
2023-01-21T14:56:28.752Z,1.23
2023-01-21T14:58:58.378Z,1.26
2023-01-21T15:01:29.245Z,1.13
2023-01-21T15:03:57.469Z,1.16
2023-01-21T15:06:26.226Z,1.27
2023-01-21T15:08:56.153Z,1.27
2023-01-21T15:11:27.595Z,1.10
2023-01-21T15:14:02.254Z,1.23
2023-01-21T15:16:34.782Z,1.27
2023-01-21T15:19:18.944Z,1.23
2023-01-21T15:22:00.725Z,1.19
2023-01-21T15:24:30.455Z,1.17
2023-01-21T15:27:04.409Z,1.18
2023-01-21T15:29:34.392Z,1.21
2023-01-21T15:32:22.103Z,1.20
2023-01-21T15:34:50.759Z,1.29
2023-01-21T15:37:20.593Z,1.27
2023-01-21T15:39:48.923Z,1.26
2023-01-21T15:42:21.312Z,1.18
2023-01-21T15:44:53.794Z,1.16
2023-01-21T15:47:30.708Z,1.21
2023-01-21T15:50:03.116Z,1.28
2023-01-21T15:52:38.116Z,1.20
2023-01-21T15:55:16.121Z,1.30
2023-01-21T15:57:46.662Z,1.15
2023-01-21T16:00:21.762Z,1.27
2023-01-21T16:02:52.748Z,1.23
2023-01-21T16:05:23.389Z,1.09
2023-01-21T16:07:55.957Z,1.25
2023-01-21T16:10:27.099Z,1.21
2023-01-21T16:13:00.695Z,1.27
2023-01-21T16:15:34.481Z,1.28
2023-01-21T16:18:11.766Z,1.29
2023-01-21T16:20:42.920Z,1.30
2023-01-21T16:23:10.326Z,1.33
2023-01-21T16:25:45.510Z,1.36
2023-01-21T16:28:12.845Z,1.37
2023-01-21T16:30:40.191Z,1.35
2023-01-21T16:33:09.910Z,1.19
2023-01-21T16:35:46.913Z,1.29
2023-01-21T16:38:15.013Z,1.29
2023-01-21T16:40:42.346Z,1.28
2023-01-21T16:43:23.171Z,1.34
2023-01-21T16:45:51.307Z,1.26
2023-01-21T16:48:22.870Z,1.30
2023-01-21T16:50:50.497Z,1.27
2023-01-21T16:53:18.914Z,1.30
2023-01-21T16:55:46.960Z,1.34
2023-01-21T16:58:21.241Z,1.31
2023-01-21T17:00:58.589Z,1.28
2023-01-21T17:03:27.852Z,1.33
2023-01-21T17:05:57.819Z,1.33
2023-01-21T17:08:25.137Z,1.16
2023-01-21T17:10:54.197Z,1.26
2023-01-21T17:13:23.199Z,1.31
2023-01-21T17:15:57.303Z,1.34
2023-01-21T17:18:28.439Z,1.30
2023-01-21T17:21:01.048Z,1.20
2023-01-21T17:23:30.003Z,1.31
2023-01-21T17:25:59.605Z,1.39
2023-01-21T17:28:30.845Z,1.30
2023-01-21T17:31:22.573Z,1.36
2023-01-21T17:34:03.849Z,1.26
2023-01-21T17:36:32.183Z,1.37
2023-01-21T17:38:59.704Z,1.39
2023-01-21T17:41:27.904Z,1.36
2023-01-21T17:43:56.609Z,1.39
2023-01-21T17:46:24.460Z,1.39
2023-01-21T17:48:54.116Z,1.33
2023-01-21T17:51:24.436Z,1.45
2023-01-21T17:53:55.608Z,1.39
2023-01-21T17:56:37.234Z,1.47
2023-01-21T17:59:04.684Z,1.34
2023-01-21T18:01:32.509Z,1.31
2023-01-21T18:03:59.816Z,1.44
2023-01-21T18:06:29.203Z,1.47
2023-01-21T18:08:57.658Z,1.47
2023-01-21T18:11:24.929Z,1.56
2023-01-21T18:13:52.511Z,1.46
2023-01-21T18:16:19.945Z,1.42
2023-01-21T18:18:47.286Z,1.35
2023-01-21T18:21:17.480Z,1.44
2023-01-21T18:23:46.192Z,1.34
2023-01-21T18:26:17.442Z,1.45
2023-01-21T18:28:44.728Z,1.44
2023-01-21T18:31:12.124Z,1.48
2023-01-21T18:33:39.751Z,1.48
2023-01-21T18:36:07.533Z,1.41
2023-01-21T18:38:35.847Z,1.47
2023-01-21T18:41:05.660Z,1.40
2023-01-21T18:43:32.951Z,1.30
2023-01-21T18:46:00.212Z,1.38
2023-01-21T18:48:29.493Z,1.37
2023-01-21T18:50:57.154Z,1.43
2023-01-21T18:53:25.451Z,1.46
2023-01-21T18:55:53.741Z,1.50
2023-01-21T18:58:22.775Z,1.35
2023-01-21T19:00:53.393Z,1.49
2023-01-21T19:03:23.138Z,1.46
2023-01-21T19:05:50.996Z,1.42
2023-01-21T19:08:21.616Z,1.45
2023-01-21T19:10:48.970Z,1.48
2023-01-21T19:13:16.261Z,1.61
2023-01-21T19:15:45.273Z,1.61
2023-01-21T19:18:13.159Z,1.59
2023-01-21T19:20:41.558Z,1.54
2023-01-21T19:23:11.475Z,1.54
2023-01-21T19:25:38.766Z,1.62
2023-01-21T19:28:06.221Z,1.63
2023-01-21T19:30:33.578Z,1.51
2023-01-21T19:33:02.337Z,1.54
2023-01-21T19:35:34.511Z,1.56
2023-01-21T19:38:03.077Z,1.59
2023-01-21T19:40:31.047Z,1.55
2023-01-21T19:42:58.346Z,1.60
2023-01-21T19:45:28.112Z,1.56
2023-01-21T19:47:55.909Z,1.63
2023-01-21T19:50:25.235Z,1.70
2023-01-21T19:52:53.520Z,1.63
2023-01-21T19:55:22.145Z,1.54
2023-01-21T19:57:53.456Z,1.64
2023-01-21T20:00:22.048Z,1.63
2023-01-21T20:02:49.431Z,1.48
2023-01-21T20:05:16.958Z,1.53
2023-01-21T20:07:46.714Z,1.61
2023-01-21T20:10:14.962Z,1.60
2023-01-21T20:12:43.783Z,1.63
2023-01-21T20:15:11.619Z,1.48
2023-01-21T20:17:39.613Z,1.62
2023-01-21T20:20:20.293Z,1.59
2023-01-21T20:22:48.915Z,1.69
2023-01-21T20:25:17.100Z,1.66
2023-01-21T20:27:45.558Z,1.63
2023-01-21T20:30:18.482Z,1.59
2023-01-21T20:32:45.959Z,1.53
2023-01-21T20:35:15.703Z,1.61
2023-01-21T20:37:45.365Z,1.54
2023-01-21T20:40:19.195Z,1.56
2023-01-21T20:42:46.741Z,1.57
2023-01-21T20:45:14.691Z,1.52
2023-01-21T20:47:49.707Z,1.58
2023-01-21T20:50:18.831Z,1.55
2023-01-21T20:52:46.121Z,1.58
2023-01-21T20:55:14.079Z,1.54
2023-01-21T20:57:43.008Z,1.53
2023-01-21T21:00:15.262Z,1.50
2023-01-21T21:02:42.624Z,1.55
2023-01-21T21:05:10.233Z,1.67
2023-01-21T21:07:37.512Z,1.65
2023-01-21T21:10:05.386Z,1.61
2023-01-21T21:12:32.645Z,1.63
2023-01-21T21:15:01.556Z,1.61
2023-01-21T21:17:28.838Z,1.58
2023-01-21T21:19:56.082Z,1.55
2023-01-21T21:22:23.389Z,1.57
2023-01-21T21:24:50.900Z,1.68
2023-01-21T21:27:18.170Z,1.63
2023-01-21T21:29:45.411Z,1.61
2023-01-21T21:32:14.607Z,1.61
2023-01-21T21:34:42.753Z,1.61
2023-01-21T21:37:11.725Z,1.59
2023-01-21T21:39:38.989Z,1.55
2023-01-21T21:42:24.005Z,1.68
2023-01-21T21:44:51.252Z,1.61
2023-01-21T21:47:37.241Z,1.65
2023-01-21T21:50:04.788Z,1.64
2023-01-21T21:52:32.749Z,1.55
2023-01-21T21:54:59.994Z,1.57
2023-01-21T21:57:27.294Z,1.63
2023-01-21T21:59:54.554Z,1.61
2023-01-21T22:02:23.169Z,1.53
2023-01-21T22:04:50.441Z,1.58
2023-01-21T22:07:18.000Z,1.48
2023-01-21T22:09:45.422Z,1.59
2023-01-21T22:12:12.694Z,1.64
2023-01-21T22:14:39.964Z,1.62
2023-01-21T22:17:08.533Z,1.62
2023-01-21T22:19:37.867Z,1.65
2023-01-21T22:22:05.316Z,1.57
2023-01-21T22:24:32.583Z,1.62
2023-01-21T22:26:59.899Z,1.66
2023-01-21T22:29:27.157Z,1.67
2023-01-21T22:31:54.491Z,1.72
2023-01-21T22:34:22.045Z,1.74
2023-01-21T22:36:52.104Z,1.69
2023-01-21T22:39:19.463Z,1.62
2023-01-21T22:41:46.763Z,1.65
2023-01-21T22:44:14.045Z,1.71
2023-01-21T22:46:41.351Z,1.68
2023-01-21T22:49:08.653Z,1.74
2023-01-21T22:51:35.908Z,1.63
2023-01-21T22:54:04.584Z,1.64
2023-01-21T22:56:50.424Z,1.60
2023-01-21T22:59:22.208Z,1.65
2023-01-21T23:01:50.924Z,1.57
2023-01-21T23:04:18.431Z,1.54
2023-01-21T23:06:47.588Z,1.58
2023-01-21T23:09:16.377Z,1.50
2023-01-21T23:11:44.951Z,1.57
2023-01-21T23:14:12.324Z,1.58
2023-01-21T23:16:40.229Z,1.62
2023-01-21T23:19:07.503Z,1.64
2023-01-21T23:21:35.863Z,1.61
2023-01-21T23:24:03.264Z,1.69
2023-01-21T23:26:31.908Z,1.67
2023-01-21T23:28:59.607Z,1.72
2023-01-21T23:31:26.990Z,1.70
2023-01-21T23:33:56.018Z,1.71
2023-01-21T23:36:23.342Z,1.63
2023-01-21T23:38:50.672Z,1.71
2023-01-21T23:41:19.763Z,1.65
2023-01-21T23:43:48.397Z,1.64
2023-01-21T23:46:19.104Z,1.61
2023-01-21T23:48:46.401Z,1.66
2023-01-21T23:51:14.726Z,1.67
2023-01-21T23:53:42.150Z,1.68
2023-01-21T23:56:10.608Z,1.69
2023-01-21T23:58:37.909Z,1.69
